Terminal Aerodrome Forecast
Issued by NWS

Home | Current Version | Previous Version | Text Only | Print | Product List | Glossary On
Versions: 1 2 3 4 5 6 7 8 9 10 11 12 13 14 15 16 17 18 19 20 21 22 23 24 25
904
FTUS46 KHNX 191522 AAB
TAFBFL
TAF AMD
KBFL 191522Z 1915/2012 32014KT 5SM -RA SCT009 OVC040
      TEMPO 1915/1919 2SM -RA BR BKN009
     FM192000 31011KT P6SM BKN025 OVC040
      TEMPO 1920/1924 -SHRA
     FM200600 32007KT P6SM OVC025=

USA.gov is the U.S. government's official web portal to all federal, state and local government web resources and services.